Time;durP1;ratioP1;P1;durP2;ratioP2;P2;SDS_P1;SDS_P2;PMS_P1;PMS_P2;Temp;Humidity;BMP_temperature;BMP_pressure;BME280_temperature;BME280_humidity;BME280_pressure;Samples;Min_cycle;Max_cycle;Signal;HPM_P1;HPM_P2
2021/06/13 00:00:10;;;;;;;9.70;8.68;;;;;;;23.68;62.57;100217.66;2050696;28;20306;-39
2021/06/13 00:01:11;;;;;;;9.95;9.00;;;;;;;23.68;62.79;100214.03;2049447;28;20694;-39
2021/06/13 00:02:12;;;;;;;9.63;8.63;;;;;;;23.68;62.65;100216.81;2050216;28;20034;-39
2021/06/13 00:03:12;;;;;;;10.83;9.63;;;;;;;23.68;62.74;100219.56;2049215;28;20042;-39
2021/06/13 00:04:13;;;;;;;9.17;8.37;;;;;;;23.68;62.72;100219.56;2049959;28;20410;-39
2021/06/13 00:05:15;;;;;;;10.03;9.13;;;;;;;23.67;62.83;100224.19;2048309;28;20444;-39
2021/06/13 00:06:15;;;;;;;10.45;9.38;;;;;;;23.67;62.72;100224.19;2050749;28;20030;-40
2021/06/13 00:07:16;;;;;;;10.20;9.20;;;;;;;23.68;62.77;100225.06;2050650;28;20026;-39
2021/06/13 00:08:16;;;;;;;9.77;8.83;;;;;;;23.67;62.70;100220.59;2049641;28;20069;-39
2021/06/13 00:09:16;;;;;;;10.47;9.57;;;;;;;23.68;62.72;100220.41;2050229;28;20152;-40
2021/06/13 00:10:18;;;;;;;10.23;9.23;;;;;;;23.67;62.90;100217.84;2049265;28;20345;-39
2021/06/13 00:11:18;;;;;;;9.98;9.00;;;;;;;23.67;62.81;100217.84;2049570;28;20030;-39
2021/06/13 00:12:19;;;;;;;10.30;9.30;;;;;;;23.67;62.79;100213.19;2050884;28;20030;-39
2021/06/13 00:13:20;;;;;;;10.23;9.20;;;;;;;23.68;62.89;100216.81;2052697;28;20070;-39
2021/06/13 00:14:22;;;;;;;10.15;8.95;;;;;;;23.67;62.84;100215.09;2053440;28;20030;-39
2021/06/13 00:15:27;;;;;;;10.50;9.48;;;;;;;23.66;62.74;100219.72;2051966;28;20169;-39
2021/06/13 00:16:27;;;;;;;9.52;8.73;;;;;;;23.67;62.68;100220.59;2050764;28;20097;-40
2021/06/13 00:17:28;;;;;;;9.23;8.33;;;;;;;23.66;62.79;100222.47;2050256;28;20478;-39
2021/06/13 00:18:28;;;;;;;11.77;9.57;;;;;;;23.66;62.81;100222.47;2052613;28;20072;-39
2021/06/13 00:19:29;;;;;;;9.57;8.67;;;;;;;23.67;62.78;100226.09;2048859;28;20022;-40
2021/06/13 00:20:29;;;;;;;10.03;9.03;;;;;;;23.66;62.94;100221.63;2049774;28;20053;-40
2021/06/13 00:21:30;;;;;;;9.83;8.93;;;;;;;23.67;62.84;100228.84;2053793;28;20034;-40
2021/06/13 00:22:30;;;;;;;10.33;9.33;;;;;;;23.67;62.86;100220.59;2051517;28;20026;-39
2021/06/13 00:23:31;;;;;;;9.30;8.40;;;;;;;23.67;62.81;100229.72;2050537;28;20034;-40
2021/06/13 00:24:31;;;;;;;10.85;9.00;;;;;;;23.67;62.90;100228.84;2049635;28;20036;-39
2021/06/13 00:25:32;;;;;;;10.23;9.23;;;;;;;23.66;62.82;100233.47;2048184;28;20037;-39
2021/06/13 00:26:34;;;;;;;10.25;9.30;;;;;;;23.67;62.83;100229.72;2049659;28;20034;-39
2021/06/13 00:27:35;;;;;;;9.25;8.35;;;;;;;23.66;62.89;100232.63;2051258;28;20050;-39
2021/06/13 00:28:36;;;;;;;10.03;9.00;;;;;;;23.68;62.75;100225.06;2049662;28;20030;-39
2021/06/13 00:29:36;;;;;;;9.38;8.52;;;;;;;23.66;62.72;100232.63;2049706;28;20074;-39
2021/06/13 00:30:37;;;;;;;9.80;8.90;;;;;;;23.67;62.80;100229.72;2049222;28;20792;-39
2021/06/13 00:31:38;;;;;;;12.05;9.23;;;;;;;23.68;62.82;100236.06;2050210;28;20367;-39
2021/06/13 00:32:39;;;;;;;10.03;8.60;;;;;;;23.66;62.55;100225.22;2050343;28;20406;-39
2021/06/13 00:33:39;;;;;;;9.40;8.53;;;;;;;23.68;62.70;100230.56;2049219;28;20038;-39
2021/06/13 00:34:40;;;;;;;10.23;9.23;;;;;;;23.67;62.76;100235.22;2048239;28;20640;-39
2021/06/13 00:35:41;;;;;;;9.05;8.25;;;;;;;23.67;62.73;100235.22;2048671;28;20038;-39
2021/06/13 00:36:41;;;;;;;10.83;9.73;;;;;;;23.66;62.68;100235.38;2051023;28;20179;-39
2021/06/13 00:37:41;;;;;;;10.53;9.63;;;;;;;23.67;62.73;100234.38;2050860;28;20117;-39
2021/06/13 00:38:42;;;;;;;9.93;9.03;;;;;;;23.68;62.71;100236.06;2050286;28;20042;-39
2021/06/13 00:39:42;;;;;;;10.13;9.23;;;;;;;23.66;62.69;100229.88;2050601;28;20606;-39
2021/06/13 00:40:43;;;;;;;10.00;9.07;;;;;;;23.65;62.83;100236.44;2051202;28;20438;-39
2021/06/13 00:41:43;;;;;;;10.03;9.10;;;;;;;23.67;62.71;100234.38;2052638;28;20114;-39
2021/06/13 00:42:44;;;;;;;10.00;9.10;;;;;;;23.67;62.76;100231.59;2050019;28;20033;-40
2021/06/13 00:43:45;;;;;;;9.90;9.03;;;;;;;23.67;62.81;100234.38;2051163;28;20030;-39
2021/06/13 00:44:46;;;;;;;9.35;8.40;;;;;;;23.67;62.52;100239.88;2052166;28;20041;-40
2021/06/13 00:45:46;;;;;;;10.37;9.40;;;;;;;23.67;63.06;100234.38;2048931;28;20626;-40
2021/06/13 00:46:47;;;;;;;9.97;9.07;;;;;;;23.67;62.72;100239.88;2042499;28;20037;-39
2021/06/13 00:47:48;;;;;;;9.90;9.00;;;;;;;23.67;62.68;100239.88;2042347;28;20030;-39
2021/06/13 00:48:49;;;;;;;11.43;9.27;;;;;;;23.67;62.72;100231.59;2050302;28;20034;-39
2021/06/13 00:49:49;;;;;;;9.73;8.83;;;;;;;23.67;62.66;100234.38;2050193;28;20035;-39
2021/06/13 00:50:52;;;;;;;9.33;8.50;;;;;;;23.65;62.64;100231.78;2049936;28;20209;-39
2021/06/13 00:51:53;;;;;;;10.43;9.40;;;;;;;23.66;62.72;100229.88;2049353;28;20038;-39
2021/06/13 00:52:54;;;;;;;10.10;9.20;;;;;;;23.66;62.80;100229.88;2049848;28;20061;-39
2021/06/13 00:53:55;;;;;;;9.27;8.38;;;;;;;23.64;62.76;100230.06;2049717;28;20433;-39
2021/06/13 00:54:56;;;;;;;10.03;8.87;;;;;;;23.66;62.66;100227.97;2049958;28;20030;-39
2021/06/13 00:55:57;;;;;;;9.37;8.47;;;;;;;23.65;62.52;100230.91;2050927;28;20164;-39
2021/06/13 00:56:58;;;;;;;9.00;8.20;;;;;;;23.65;62.83;100229.03;2049398;28;20906;-40
2021/06/13 00:58:00;;;;;;;9.90;9.00;;;;;;;23.67;62.73;100231.59;2049409;28;20350;-39
2021/06/13 00:59:00;;;;;;;;;;;;;;;23.61;62.82;100226.78;2050955;28;20053;-39
2021/06/13 01:00:01;;;;;;;9.90;8.95;;;;;;;23.63;62.76;100224.72;2049811;28;19928;-40
2021/06/13 01:01:02;;;;;;;9.60;8.70;;;;;;;23.63;62.72;100221.97;2050603;28;20030;-39
2021/06/13 01:02:02;;;;;;;9.57;8.67;;;;;;;23.63;62.81;100221.97;2049954;28;20621;-39
2021/06/13 01:03:03;;;;;;;9.63;8.73;;;;;;;23.64;62.84;100229.19;2053729;28;20379;-40
2021/06/13 01:04:04;;;;;;;10.05;8.63;;;;;;;23.64;62.79;100223.69;2051140;28;20310;-39
2021/06/13 01:05:06;;;;;;;9.85;8.95;;;;;;;23.64;62.87;100226.44;2052180;28;20042;-39
2021/06/13 01:06:07;;;;;;;10.00;9.10;;;;;;;23.64;62.84;100218.19;2048387;28;20043;-39
2021/06/13 01:07:28;;;;;;;9.53;8.63;;;;;;;23.62;62.96;100215.63;2048929;28;20030;-40
2021/06/13 01:08:49;;;;;;;9.82;8.82;;;;;;;23.60;62.90;100223.19;2050556;28;20121;-40
2021/06/13 01:10:00;;;;;;;10.30;9.40;;;;;;;23.62;62.89;100217.53;2052549;28;20124;-39
2021/06/13 01:11:25;;;;;;;10.05;8.98;;;;;;;23.60;62.97;100214.09;2049617;28;20034;-39
2021/06/13 01:12:39;;;;;;;9.25;8.35;;;;;;;23.60;63.07;100223.19;2048371;28;20117;-40
2021/06/13 01:13:59;;;;;;;10.23;8.85;;;;;;;23.59;62.99;100221.50;2049303;28;20330;-40
2021/06/13 01:15:08;;;;;;;9.70;8.65;;;;;;;23.60;63.02;100216.84;2049849;28;20030;-39
2021/06/13 01:16:17;;;;;;;9.38;8.48;;;;;;;23.60;62.92;100223.19;2049001;28;20041;-39
2021/06/13 01:17:38;;;;;;;9.18;8.32;;;;;;;23.60;63.06;100216.84;2049317;28;20026;-39
2021/06/13 01:18:46;;;;;;;9.57;8.57;;;;;;;23.59;63.03;100212.34;2049704;28;20080;-39
2021/06/13 01:20:41;;;;;;;9.82;8.93;;;;;;;23.59;62.79;100209.59;2048141;28;20045;-39
2021/06/13 01:21:59;;;;;;;9.77;8.90;;;;;;;23.58;63.04;100207.91;2032063;29;20035;-39
2021/06/13 01:23:30;;;;;;;9.60;8.60;;;;;;;23.59;62.95;100212.34;2031876;28;20019;-39
2021/06/13 01:24:52;;;;;;;9.75;8.80;;;;;;;23.58;62.91;100213.41;2046725;28;20591;-39
2021/06/13 01:26:22;;;;;;;11.20;9.13;;;;;;;23.58;62.85;100205.16;2049159;28;20527;-39
2021/06/13 01:27:37;;;;;;;9.68;8.77;;;;;;;23.58;62.99;100207.91;2050144;28;20443;-39
2021/06/13 01:28:59;;;;;;;11.20;8.70;;;;;;;23.58;62.98;100207.91;2049678;28;20209;-40
2021/06/13 01:30:03;;;;;;;9.05;8.25;;;;;;;23.58;62.98;100208.75;2048985;28;20034;-39
2021/06/13 01:31:08;;;;;;;10.27;9.38;;;;;;;23.59;62.98;100207.72;2049501;28;20108;-39
2021/06/13 01:32:23;;;;;;;9.90;9.10;;;;;;;23.60;62.93;100205.84;2049789;28;20137;-39
2021/06/13 01:33:23;;;;;;;8.63;7.82;;;;;;;23.61;62.86;100213.03;2047777;28;20034;-39
2021/06/13 01:34:30;;;;;;;9.50;8.60;;;;;;;23.60;63.08;100212.19;2051406;28;20026;-39
2021/06/13 01:35:33;;;;;;;9.77;8.73;;;;;;;23.60;62.83;100205.84;2050805;28;20040;-39
2021/06/13 01:36:35;;;;;;;9.88;8.90;;;;;;;23.61;62.81;100207.53;2049272;28;20072;-39
2021/06/13 01:37:39;;;;;;;9.15;8.35;;;;;;;23.61;62.76;100215.78;2050688;28;20026;-39
2021/06/13 01:38:40;;;;;;;9.70;8.85;;;;;;;23.62;62.89;100206.50;2050092;28;21031;-39
2021/06/13 01:39:42;;;;;;;9.15;8.35;;;;;;;23.63;62.68;100213.72;2040447;28;20717;-39
2021/06/13 01:40:45;;;;;;;9.85;8.93;;;;;;;23.63;62.74;100206.31;2041647;28;20062;-39
2021/06/13 01:41:48;;;;;;;9.52;8.73;;;;;;;23.62;62.68;100210.13;2051673;28;20065;-39
2021/06/13 01:42:54;;;;;;;9.63;8.60;;;;;;;23.62;62.54;100209.28;2047729;28;20034;-39
2021/06/13 01:43:57;;;;;;;9.68;8.77;;;;;;;23.63;62.76;100208.22;2048987;28;20030;-39
2021/06/13 01:45:00;;;;;;;9.18;8.38;;;;;;;23.63;62.83;100217.31;2050321;28;20086;-39
2021/06/13 01:46:03;;;;;;;9.45;8.57;;;;;;;23.62;62.49;100215.63;2047531;28;20133;-39
2021/06/13 01:47:05;;;;;;;9.23;8.35;;;;;;;23.62;62.62;100210.13;2051433;28;20057;-40
2021/06/13 01:48:08;;;;;;;9.70;8.80;;;;;;;23.64;62.56;100212.69;2056230;28;20030;-39
2021/06/13 01:49:11;;;;;;;9.85;8.85;;;;;;;23.64;62.63;100212.69;2052904;28;20065;-39
2021/06/13 01:50:12;;;;;;;9.05;8.25;;;;;;;23.65;62.66;100217.16;2062269;28;20042;-39
2021/06/13 01:51:13;;;;;;;8.68;7.88;;;;;;;23.64;62.59;100207.16;2052401;28;20140;-39
2021/06/13 01:52:14;;;;;;;10.17;9.17;;;;;;;23.64;62.62;100212.69;2053044;28;20109;-39
2021/06/13 01:53:16;;;;;;;9.70;8.63;;;;;;;23.65;62.83;100214.41;2047916;28;20562;-39
2021/06/13 01:54:18;;;;;;;9.48;8.57;;;;;;;23.63;62.61;100203.56;2049433;28;20049;-39
2021/06/13 01:55:20;;;;;;;9.60;8.70;;;;;;;23.63;62.67;100210.97;2049042;28;20034;-39
2021/06/13 01:56:21;;;;;;;9.80;8.90;;;;;;;23.65;62.62;100208.91;2049719;28;20077;-40
2021/06/13 01:57:24;;;;;;;10.20;9.25;;;;;;;23.62;62.71;100203.75;2048696;28;20396;-39
2021/06/13 01:58:25;;;;;;;10.10;9.10;;;;;;;23.63;62.71;100208.22;2050209;28;20046;-39
2021/06/13 01:59:27;;;;;;;9.05;8.18;;;;;;;23.64;62.66;100213.56;2049522;28;20386;-39
2021/06/13 02:00:28;;;;;;;9.32;8.52;;;;;;;23.64;62.51;100207.16;2049985;28;20045;-39
2021/06/13 02:01:30;;;;;;;10.15;9.25;;;;;;;23.64;62.68;100207.16;2049113;28;20539;-39
2021/06/13 02:02:31;;;;;;;9.63;8.60;;;;;;;23.64;62.52;100201.66;2048307;28;20326;-39
2021/06/13 02:03:35;;;;;;;9.60;8.70;;;;;;;23.64;62.53;100207.16;2048745;28;20112;-40
2021/06/13 02:04:37;;;;;;;8.18;7.47;;;;;;;23.64;62.72;100204.41;2049338;28;20707;-39
2021/06/13 02:05:39;;;;;;;9.18;8.38;;;;;;;23.63;62.52;100199.97;2051638;28;20034;-39
2021/06/13 02:06:46;;;;;;;8.70;7.80;;;;;;;23.63;62.56;100205.47;2047821;28;20034;-39
2021/06/13 02:07:48;;;;;;;9.45;8.55;;;;;;;23.62;62.66;100204.63;2048896;28;20257;-39
2021/06/13 02:08:51;;;;;;;8.40;7.68;;;;;;;23.62;62.62;100198.25;2049776;28;20057;-39
2021/06/13 02:09:53;;;;;;;9.55;8.75;;;;;;;23.64;62.67;100208.06;2051820;28;20058;-39
2021/06/13 02:10:54;;;;;;;10.75;8.73;;;;;;;23.63;62.61;100211.81;2049691;28;20030;-39
2021/06/13 02:11:58;;;;;;;10.27;9.20;;;;;;;23.63;62.63;100208.22;2048625;28;20031;-39
2021/06/13 02:13:00;;;;;;;9.48;8.57;;;;;;;23.63;62.45;100213.72;2051180;28;20269;-40
2021/06/13 02:14:02;;;;;;;9.05;8.20;;;;;;;23.63;62.63;100210.97;2052633;28;20163;-39
2021/06/13 02:15:04;;;;;;;9.90;9.00;;;;;;;23.63;62.64;100211.81;2049693;28;20033;-39
2021/06/13 02:16:08;;;;;;;8.80;8.00;;;;;;;23.62;62.64;100204.63;2049529;28;20061;-39
2021/06/13 02:17:10;;;;;;;9.70;8.80;;;;;;;23.62;62.88;100207.38;2048783;28;20050;-39
2021/06/13 02:18:11;;;;;;;9.55;8.65;;;;;;;23.62;62.61;100209.28;2048075;28;20034;-39
2021/06/13 02:19:19;;;;;;;9.20;8.40;;;;;;;23.63;62.60;100205.47;2050672;28;20084;-39
2021/06/13 02:20:23;;;;;;;9.75;8.88;;;;;;;23.63;62.45;100210.97;2048156;28;20060;-39
2021/06/13 02:21:26;;;;;;;9.48;8.57;;;;;;;23.63;62.40;100210.97;2048954;28;20029;-39
2021/06/13 02:22:27;;;;;;;9.85;8.95;;;;;;;23.64;62.61;100209.91;2052604;28;20038;-39
2021/06/13 02:23:28;;;;;;;9.60;8.70;;;;;;;23.64;62.48;100209.91;2048355;28;20057;-39
2021/06/13 02:24:32;;;;;;;8.98;8.18;;;;;;;23.62;62.60;100209.28;2048041;28;20345;-39
2021/06/13 02:25:33;;;;;;;8.95;8.15;;;;;;;23.63;62.58;100221.97;2048501;28;20137;-39
2021/06/13 02:26:34;;;;;;;10.10;9.20;;;;;;;23.64;62.61;100212.69;2051062;28;20637;-39
2021/06/13 02:27:36;;;;;;;8.93;8.13;;;;;;;23.62;62.60;100206.50;2049344;28;20109;-39
2021/06/13 02:28:39;;;;;;;;;;;;;;;23.57;62.62;100204.28;2049009;28;20030;-39
2021/06/13 02:29:40;;;;;;;;;;;;;;;23.53;62.71;100206.53;2049152;28;19922;-40
2021/06/13 02:30:41;;;;;;;9.82;8.93;;;;;;;23.56;62.63;100199.81;2047875;28;19984;-39
2021/06/13 02:31:43;;;;;;;9.10;8.30;;;;;;;23.57;62.65;100206.16;2050623;28;20433;-39
2021/06/13 02:32:44;;;;;;;10.00;9.00;;;;;;;23.58;62.74;100206.00;2051942;28;21031;-39
2021/06/13 02:33:46;;;;;;;9.83;8.93;;;;;;;23.60;62.65;100211.34;2051051;28;20038;-39
2021/06/13 02:34:48;;;;;;;8.85;8.05;;;;;;;23.60;62.57;100208.59;2049199;28;20029;-39
2021/06/13 02:35:53;;;;;;;9.40;8.50;;;;;;;23.60;62.66;100201.19;2048914;28;20041;-39
2021/06/13 02:36:56;;;;;;;9.43;8.48;;;;;;;23.60;62.58;100200.31;2050223;28;20136;-39
2021/06/13 02:37:58;;;;;;;9.82;8.93;;;;;;;23.60;62.58;100209.44;2049957;28;20117;-39
2021/06/13 02:39:00;;;;;;;8.88;8.07;;;;;;;23.60;62.62;100203.94;2052279;28;20029;-39
2021/06/13 02:40:00;;;;;;;9.60;8.70;;;;;;;23.60;62.59;100205.84;2050406;28;20044;-39
2021/06/13 02:41:01;;;;;;;8.63;7.87;;;;;;;23.59;62.52;100204.97;2050804;28;20505;-39
2021/06/13 02:42:02;;;;;;;10.20;9.23;;;;;;;23.62;62.67;100203.75;2050801;28;20026;-39
2021/06/13 02:43:03;;;;;;;9.20;8.27;;;;;;;23.60;62.57;100192.94;2049469;28;20107;-39
2021/06/13 02:44:04;;;;;;;10.13;8.73;;;;;;;23.61;62.64;100197.38;2050810;28;20245;-39
2021/06/13 02:45:16;;;;;;;9.67;8.77;;;;;;;23.61;62.53;100202.03;2050127;28;20034;-40
2021/06/13 02:46:16;;;;;;;8.90;8.10;;;;;;;23.62;62.55;100203.75;2052682;28;20352;-39
2021/06/13 02:47:17;;;;;;;9.23;8.37;;;;;;;23.60;62.57;100201.19;2047680;28;20073;-39
2021/06/13 02:48:19;;;;;;;8.97;8.17;;;;;;;23.61;62.47;100193.78;2052344;28;20030;-39
2021/06/13 02:49:19;;;;;;;9.27;8.48;;;;;;;23.61;62.61;100202.03;2049336;28;20046;-39
2021/06/13 02:50:22;;;;;;;9.60;8.70;;;;;;;23.61;62.71;100202.03;2050304;28;20068;-39
2021/06/13 02:51:33;;;;;;;10.32;9.43;;;;;;;23.61;62.49;100208.38;2050280;28;21306;-39
2021/06/13 02:52:46;;;;;;;9.50;8.60;;;;;;;23.59;62.72;100198.59;2051252;28;20069;-39
2021/06/13 02:53:54;;;;;;;9.77;8.77;;;;;;;23.59;62.63;100198.59;2051413;28;20053;-39
2021/06/13 02:54:58;;;;;;;9.15;8.35;;;;;;;23.59;62.63;100201.34;2051071;28;20038;-39
2021/06/13 02:56:08;;;;;;;9.32;8.43;;;;;;;23.59;62.65;100201.34;2049187;28;20077;-39
2021/06/13 02:57:21;;;;;;;9.00;8.20;;;;;;;23.59;62.63;100202.22;2048191;28;20444;-39
2021/06/13 02:58:31;;;;;;;8.77;7.97;;;;;;;23.59;62.67;100198.59;2052380;28;20541;-39
2021/06/13 02:59:50;;;;;;;9.57;8.75;;;;;;;23.58;62.67;100202.38;2051838;28;20059;-39
2021/06/13 03:00:52;;;;;;;8.52;7.72;;;;;;;23.58;62.60;100202.38;2051225;28;20344;-39
2021/06/13 03:01:54;;;;;;;;;;;;;;;23.53;62.71;100201.00;2052082;28;20038;-39
2021/06/13 03:02:57;;;;;;;9.27;8.45;;;;;;;23.53;62.71;100201.00;2049881;28;20020;-39
2021/06/13 03:04:01;;;;;;;9.32;8.43;;;;;;;23.56;62.74;100204.47;2049912;28;20044;-39
2021/06/13 03:05:04;;;;;;;9.27;8.45;;;;;;;23.54;62.67;100200.00;2041912;28;20038;-39
2021/06/13 03:06:17;;;;;;;9.32;8.43;;;;;;;23.56;62.78;100204.47;2040332;28;20043;-39
2021/06/13 03:07:19;;;;;;;8.82;8.02;;;;;;;23.56;62.63;100204.47;2049275;28;20034;-39
2021/06/13 03:08:20;;;;;;;;;;;;;;;23.52;62.66;100198.47;2050704;28;20082;-39
2021/06/13 03:09:23;;;;;;;9.45;8.25;;;;;;;23.53;62.60;100202.91;2046525;28;21438;-39
2021/06/13 03:10:23;;;;;;;9.20;8.30;;;;;;;23.54;62.76;100201.88;2048095;28;20031;-39
2021/06/13 03:11:24;;;;;;;9.00;8.23;;;;;;;23.54;62.67;100201.88;2049659;28;20275;-39
2021/06/13 03:12:25;;;;;;;8.77;7.97;;;;;;;23.57;62.58;100197.91;2050450;28;21177;-40
2021/06/13 03:13:27;;;;;;;9.50;8.60;;;;;;;23.56;62.61;100198.94;2050431;28;20038;-39
2021/06/13 03:14:30;;;;;;;;;;;;;;;23.52;62.63;100204.81;2049968;28;20034;-39
2021/06/13 03:15:33;;;;;;;8.73;7.93;;;;;;;23.52;62.72;100202.06;2049728;28;19917;-39
2021/06/13 03:16:36;;;;;;;9.77;8.88;;;;;;;23.54;62.69;100202.75;2051322;28;20435;-39
2021/06/13 03:17:39;;;;;;;9.40;8.50;;;;;;;23.57;62.52;100200.66;2049284;28;20448;-39
2021/06/13 03:18:42;;;;;;;9.38;8.27;;;;;;;23.56;62.73;100204.47;2048602;28;20339;-39
2021/06/13 03:19:44;;;;;;;8.70;7.90;;;;;;;23.56;62.65;100204.47;2049327;28;20137;-40
2021/06/13 03:20:44;;;;;;;9.40;8.50;;;;;;;23.57;62.58;100203.41;2049750;28;21405;-39
2021/06/13 03:21:47;;;;;;;9.40;8.50;;;;;;;23.57;62.42;100207.03;2049305;28;20458;-39
2021/06/13 03:22:47;;;;;;;9.40;8.60;;;;;;;23.58;62.41;100202.38;2049238;28;20293;-40
2021/06/13 03:23:48;;;;;;;8.47;7.67;;;;;;;23.59;62.51;100209.59;2051350;28;20053;-39
2021/06/13 03:24:50;;;;;;;9.53;8.63;;;;;;;23.58;62.43;100207.91;2050684;28;20054;-39
2021/06/13 03:25:53;;;;;;;9.35;8.55;;;;;;;23.58;62.51;100205.16;2052390;28;20493;-39
2021/06/13 03:26:54;;;;;;;9.02;8.23;;;;;;;23.58;62.50;100202.38;2049774;28;20121;-39
2021/06/13 03:27:56;;;;;;;10.27;9.27;;;;;;;23.58;62.44;100208.75;2049416;28;20045;-39
2021/06/13 03:28:59;;;;;;;8.73;7.93;;;;;;;23.58;62.54;100203.25;2050252;28;20038;-39
2021/06/13 03:30:00;;;;;;;9.73;8.82;;;;;;;23.58;62.36;100199.63;2049429;28;20044;-39
2021/06/13 03:31:02;;;;;;;9.52;8.63;;;;;;;23.59;62.47;100198.59;2049455;28;20041;-39
2021/06/13 03:32:03;;;;;;;9.18;8.27;;;;;;;23.58;62.45;100205.16;2052126;28;20061;-39
2021/06/13 03:33:06;;;;;;;9.57;8.77;;;;;;;23.59;62.42;100209.59;2041510;28;20120;-39
2021/06/13 03:34:08;;;;;;;9.60;8.68;;;;;;;23.59;62.43;100204.09;2040756;28;20471;-39
2021/06/13 03:35:09;;;;;;;9.80;8.43;;;;;;;23.59;62.47;100210.47;2048781;28;20037;-39
2021/06/13 03:36:10;;;;;;;8.95;8.15;;;;;;;23.59;62.35;100212.34;2049327;28;20097;-39
2021/06/13 03:37:11;;;;;;;10.03;8.90;;;;;;;23.59;62.63;100209.59;2048868;28;20415;-39
2021/06/13 03:38:13;;;;;;;9.82;8.98;;;;;;;23.59;62.40;100215.09;2047780;28;20297;-39
2021/06/13 03:39:15;;;;;;;8.80;8.00;;;;;;;23.60;62.42;100212.19;2049137;28;20220;-39
2021/06/13 03:40:17;;;;;;;;;;;;;;;23.54;62.45;100213.75;2041382;28;20491;-39
2021/06/13 03:41:19;;;;;;;9.68;8.77;;;;;;;23.56;62.61;100212.72;2041897;28;19929;-39
2021/06/13 03:42:21;;;;;;;9.30;8.40;;;;;;;23.56;62.58;100216.31;2051479;28;20045;-40
2021/06/13 03:43:22;;;;;;;8.82;8.02;;;;;;;23.57;62.44;100211.66;2051750;28;20101;-39
2021/06/13 03:44:23;;;;;;;9.20;8.40;;;;;;;23.57;62.44;100207.03;2050229;28;20038;-39
2021/06/13 03:45:25;;;;;;;9.15;8.30;;;;;;;23.59;62.43;100217.84;2051091;28;20084;-39
2021/06/13 03:46:26;;;;;;;9.02;8.20;;;;;;;23.58;62.48;100214.25;2054103;28;20072;-39
2021/06/13 03:47:30;;;;;;;9.10;8.30;;;;;;;23.58;62.48;100216.16;2051648;28;20403;-39
2021/06/13 03:48:32;;;;;;;8.82;8.07;;;;;;;23.57;62.36;100218.06;2051438;28;20034;-40
2021/06/13 03:49:34;;;;;;;8.18;7.47;;;;;;;23.58;62.34;100219.75;2053162;28;20412;-39
2021/06/13 03:50:35;;;;;;;9.27;8.38;;;;;;;23.58;62.40;100218.91;2047454;28;20085;-39
2021/06/13 03:51:35;;;;;;;9.15;8.35;;;;;;;23.58;62.49;100224.41;2054777;28;20107;-39
2021/06/13 03:52:38;;;;;;;8.93;8.13;;;;;;;23.58;62.50;100218.91;2052641;28;20084;-39
2021/06/13 03:53:53;;;;;;;9.50;8.60;;;;;;;23.57;62.50;100212.53;2050945;28;20034;-39
2021/06/13 03:54:55;;;;;;;8.95;8.13;;;;;;;23.56;62.53;100216.31;2051177;28;20568;-39
2021/06/13 03:56:00;;;;;;;;;;;;;;;23.52;62.47;100220.47;2049442;28;20335;-39
2021/06/13 03:57:06;;;;;;;9.38;8.48;;;;;;;23.53;62.51;100217.53;2050933;28;19972;-39
2021/06/13 03:58:08;;;;;;;8.70;7.88;;;;;;;23.54;62.56;100221.13;2048921;28;20490;-39
2021/06/13 03:59:10;;;;;;;9.73;8.88;;;;;;;23.53;62.58;100217.53;2050190;28;20046;-39
2021/06/13 04:00:12;;;;;;;9.05;8.15;;;;;;;23.56;62.50;100220.97;2050540;28;20338;-39
2021/06/13 04:01:15;;;;;;;8.98;8.18;;;;;;;23.56;62.36;100215.47;2051376;28;20332;-40
2021/06/13 04:02:17;;;;;;;8.73;7.93;;;;;;;23.56;62.49;100221.81;2049766;28;20034;-39
2021/06/13 04:03:20;;;;;;;10.18;8.70;;;;;;;23.57;62.43;100219.91;2050212;28;20117;-39
2021/06/13 04:04:23;;;;;;;9.63;8.73;;;;;;;23.56;62.36;100223.72;2051487;28;20532;-39
2021/06/13 04:05:24;;;;;;;9.52;8.50;;;;;;;23.56;62.59;100224.56;2051862;28;20030;-39
2021/06/13 04:06:25;;;;;;;8.98;8.18;;;;;;;23.57;62.41;100222.66;2050341;28;20373;-39
2021/06/13 04:07:26;;;;;;;10.13;9.10;;;;;;;23.57;62.47;100225.41;2049823;28;20034;-40
2021/06/13 04:08:27;;;;;;;9.27;8.40;;;;;;;23.56;62.54;100230.06;2049292;28;20037;-39
2021/06/13 04:09:28;;;;;;;9.63;8.75;;;;;;;23.57;62.53;100228.16;2050793;28;20049;-40
2021/06/13 04:10:30;;;;;;;10.05;9.15;;;;;;;23.54;62.44;100230.28;2051252;28;20133;-39
2021/06/13 04:11:31;;;;;;;8.70;7.90;;;;;;;23.56;62.38;100229.22;2049822;28;20033;-39
2021/06/13 04:12:33;;;;;;;9.82;8.82;;;;;;;23.57;62.38;100228.16;2051125;28;20030;-39
2021/06/13 04:13:35;;;;;;;9.23;8.43;;;;;;;23.54;62.44;100224.75;2050275;28;20062;-43
2021/06/13 04:14:36;;;;;;;7.97;7.32;;;;;;;23.57;62.42;100233.69;2050850;28;20085;-39
2021/06/13 04:15:37;;;;;;;8.70;8.00;;;;;;;23.57;62.43;100229.06;2049631;28;20026;-39
2021/06/13 04:16:39;;;;;;;9.45;8.55;;;;;;;23.56;62.34;100220.97;2051204;28;20113;-39
2021/06/13 04:17:41;;;;;;;8.98;8.18;;;;;;;23.56;62.43;100232.81;2051118;28;20077;-41
2021/06/13 04:18:42;;;;;;;9.40;8.40;;;;;;;23.56;62.37;100220.97;2048865;28;20707;-39
2021/06/13 04:19:45;;;;;;;10.30;9.38;;;;;;;23.58;62.39;100229.91;2050272;28;20034;-40
2021/06/13 04:20:47;;;;;;;9.40;8.40;;;;;;;23.57;62.54;100233.69;2052575;28;20449;-39
2021/06/13 04:21:48;;;;;;;9.13;8.18;;;;;;;23.56;62.42;100232.81;2049296;28;20034;-39
2021/06/13 04:22:49;;;;;;;9.43;8.53;;;;;;;23.57;62.44;100230.91;2051571;28;20615;-39
2021/06/13 04:23:51;;;;;;;9.43;8.40;;;;;;;23.54;62.48;100224.75;2048964;28;20030;-40
2021/06/13 04:24:52;;;;;;;;;;;;;;;23.51;62.53;100236.09;2051042;28;20120;-39
2021/06/13 04:25:56;;;;;;;8.93;8.05;;;;;;;23.52;62.56;100236.97;2050973;28;19921;-39
2021/06/13 04:26:59;;;;;;;9.60;8.70;;;;;;;23.52;62.61;100237.84;2052207;28;20503;-39
2021/06/13 04:28:00;;;;;;;8.68;7.88;;;;;;;23.54;62.58;100233.03;2050677;28;20424;-40
2021/06/13 04:29:00;;;;;;;9.45;8.55;;;;;;;23.54;62.52;100240.38;2050801;28;20030;-39
2021/06/13 04:30:02;;;;;;;8.43;7.63;;;;;;;23.53;62.42;100235.94;2049288;28;20035;-39
2021/06/13 04:31:03;;;;;;;8.30;7.60;;;;;;;23.53;62.37;100231.28;2049605;28;20030;-39
2021/06/13 04:32:06;;;;;;;8.60;7.80;;;;;;;23.53;62.48;100238.69;2050749;28;20027;-39
2021/06/13 04:33:10;;;;;;;10.38;8.50;;;;;;;23.53;62.45;100239.53;2051305;28;20045;-40
2021/06/13 04:34:10;;;;;;;9.65;8.73;;;;;;;23.54;62.30;100237.63;2056419;28;20022;-39
2021/06/13 04:35:11;;;;;;;9.20;8.30;;;;;;;23.53;62.46;100239.53;2053842;28;20405;-39
2021/06/13 04:36:14;;;;;;;9.03;8.23;;;;;;;23.53;62.47;100236.78;2049847;28;20054;-39
2021/06/13 04:37:14;;;;;;;9.52;8.68;;;;;;;23.54;62.42;100238.53;2045105;28;20027;-39
2021/06/13 04:38:15;;;;;;;9.70;8.80;;;;;;;23.56;62.42;100242.97;2059394;28;20018;-39
2021/06/13 04:39:15;;;;;;;8.57;7.77;;;;;;;23.54;62.44;100238.53;2049191;28;20034;-39
2021/06/13 04:40:16;;;;;;;9.73;8.80;;;;;;;23.53;62.50;100239.53;2051396;28;20030;-39
2021/06/13 04:41:16;;;;;;;8.93;8.13;;;;;;;23.53;62.37;100239.53;2050358;28;20482;-39
2021/06/13 04:42:17;;;;;;;8.87;8.03;;;;;;;23.53;62.52;100241.44;2050458;28;20245;-39
2021/06/13 04:43:18;;;;;;;9.90;8.97;;;;;;;23.54;62.42;100252.28;2050783;28;20275;-40
2021/06/13 04:44:18;;;;;;;9.18;8.38;;;;;;;23.54;62.47;100241.28;2051716;28;20480;-39
2021/06/13 04:45:19;;;;;;;9.37;8.57;;;;;;;23.54;62.42;100238.53;2050254;28;20073;-39
2021/06/13 04:46:26;;;;;;;8.87;8.07;;;;;;;23.53;62.44;100236.78;2048998;28;20066;-39
2021/06/13 04:47:26;;;;;;;9.02;8.15;;;;;;;23.54;62.37;100246.78;2047695;28;20034;-39
2021/06/13 04:48:27;;;;;;;9.60;8.70;;;;;;;23.53;62.62;100234.03;2052155;28;20026;-39
2021/06/13 04:49:27;;;;;;;8.60;7.80;;;;;;;23.52;62.53;100237.84;2050396;28;20034;-39
2021/06/13 04:50:28;;;;;;;8.97;8.07;;;;;;;23.53;62.47;100245.03;2050536;28;20026;-39
2021/06/13 04:51:28;;;;;;;10.03;9.13;;;;;;;23.54;62.42;100240.38;2052555;28;20049;-39
2021/06/13 04:52:31;;;;;;;8.73;8.00;;;;;;;23.54;62.59;100234.88;2049743;28;20038;-39
2021/06/13 04:54:52;;;;;;;8.75;7.95;;;;;;;23.52;62.39;100232.34;2049996;28;20483;-39
2021/06/13 04:55:56;;;;;;;8.68;7.88;;;;;;;23.52;62.48;100232.34;2050384;28;20030;-39